Time;durP1;ratioP1;P1;durP2;ratioP2;P2;SDS_P1;SDS_P2;PMS_P1;PMS_P2;Temp;Humidity;BMP_temperature;BMP_pressure;BME280_temperature;BME280_humidity;BME280_pressure;Samples;Min_cycle;Max_cycle;Signal;HPM_P1;HPM_P2
2022/12/07 00:00:50;;;;;;;9.25;7.25;;;;;;;21.88;43.91;94895.19;5014055;28;20071;-61
2022/12/07 00:03:15;;;;;;;10.48;7.45;;;;;;;21.71;44.05;94872.78;5032253;28;20556;-61
2022/12/07 00:05:41;;;;;;;10.75;7.32;;;;;;;21.81;44.01;94879.41;5032456;28;20051;-62
2022/12/07 00:08:06;;;;;;;12.15;7.90;;;;;;;21.77;43.98;94873.50;5032096;28;21620;-61
2022/12/07 00:10:33;;;;;;;9.07;7.32;;;;;;;21.84;43.99;94886.56;5033218;28;20029;-61
2022/12/07 00:12:59;;;;;;;11.15;7.82;;;;;;;21.64;44.08;94863.19;5032740;28;20067;-62
2022/12/07 00:15:24;;;;;;;11.98;8.40;;;;;;;21.77;44.05;94881.66;5015265;28;20064;-61
2022/12/07 00:17:50;;;;;;;9.82;7.35;;;;;;;21.64;43.90;94857.00;5011926;28;20049;-61
2022/12/07 00:20:15;;;;;;;9.73;7.00;;;;;;;21.71;44.01;94861.94;5013030;28;20053;-61
2022/12/07 00:22:41;;;;;;;10.38;7.60;;;;;;;21.23;44.21;94801.84;5015636;28;20151;-60
2022/12/07 00:25:06;;;;;;;9.63;7.55;;;;;;;21.67;44.24;94877.75;5017208;28;20048;-61
2022/12/07 00:27:32;;;;;;;9.48;7.45;;;;;;;21.55;43.99;94857.28;5014039;28;20107;-62
2022/12/07 00:29:57;;;;;;;10.20;7.75;;;;;;;20.96;44.13;94760.50;5015679;28;21746;-63
2022/12/07 00:32:23;;;;;;;11.13;8.05;;;;;;;21.61;44.23;94874.31;5015029;28;20288;-62
2022/12/07 00:34:48;;;;;;;10.50;8.02;;;;;;;21.68;44.15;94884.66;5013599;28;20044;-60
2022/12/07 00:37:13;;;;;;;11.52;8.05;;;;;;;21.68;44.21;94885.41;5016730;28;20048;-61
2022/12/07 00:39:39;;;;;;;9.85;7.35;;;;;;;21.67;44.25;94880.47;5013907;28;21934;-62
2022/12/07 00:42:04;;;;;;;9.95;7.85;;;;;;;21.43;44.28;94842.25;5014874;28;21568;-62
2022/12/07 00:44:30;;;;;;;11.43;7.72;;;;;;;21.55;44.19;94870.88;5015234;28;20772;-62
2022/12/07 00:46:55;;;;;;;11.55;8.40;;;;;;;21.66;44.26;94892.59;5014924;28;20041;-62
2022/12/07 00:49:21;;;;;;;12.02;8.73;;;;;;;21.63;43.95;94874.56;5015392;28;20033;-61
2022/12/07 00:51:48;;;;;;;11.45;8.45;;;;;;;21.25;44.26;94821.09;5012204;28;20102;-62
2022/12/07 00:54:13;;;;;;;11.23;7.85;;;;;;;21.50;44.02;94863.50;5015829;28;20057;-61
2022/12/07 00:56:39;;;;;;;10.77;7.75;;;;;;;21.46;44.39;94890.19;5015728;28;20910;-60
2022/12/07 00:59:05;;;;;;;12.20;8.13;;;;;;;21.50;43.93;94852.63;5016178;28;20060;-61
2022/12/07 01:01:35;;;;;;;10.65;8.05;;;;;;;21.59;44.14;94872.09;4979148;28;20043;-62
2022/12/07 01:04:01;;;;;;;11.05;8.13;;;;;;;20.66;44.09;94743.31;4997693;28;20096;-60
2022/12/07 01:06:26;;;;;;;11.50;8.18;;;;;;;21.47;44.22;94872.66;5015298;28;20052;-60
2022/12/07 01:08:52;;;;;;;11.27;8.13;;;;;;;21.52;44.34;94866.44;5013819;28;20285;-62
2022/12/07 01:11:20;;;;;;;11.25;8.05;;;;;;;21.54;44.39;94866.69;4991921;28;21761;-61
2022/12/07 01:13:45;;;;;;;12.13;8.45;;;;;;;21.52;44.34;94867.19;5015349;28;20044;-62
2022/12/07 01:16:12;;;;;;;10.85;7.95;;;;;;;21.52;44.49;94869.16;5036374;28;20047;-64
2022/12/07 01:18:38;;;;;;;10.38;7.72;;;;;;;21.52;44.48;94882.75;5036459;28;20179;-62
2022/12/07 01:21:07;;;;;;;10.30;7.75;;;;;;;20.66;44.29;94732.44;5036049;28;20642;-62
2022/12/07 01:23:35;;;;;;;10.73;7.88;;;;;;;21.48;44.34;94855.13;5018154;28;20121;-61
2022/12/07 01:26:03;;;;;;;11.52;8.38;;;;;;;21.48;44.49;94852.41;5035850;28;20139;-63
2022/12/07 01:28:28;;;;;;;9.95;7.82;;;;;;;21.39;44.35;94847.22;5025460;28;20066;-61
2022/12/07 01:31:05;;;;;;;10.63;7.80;;;;;;;21.48;44.48;94855.13;4997870;28;20213;-61
2022/12/07 01:33:35;;;;;;;11.05;8.05;;;;;;;21.45;44.33;94845.22;5036538;28;20044;-62
2022/12/07 01:36:06;;;;;;;10.30;7.63;;;;;;;21.46;44.53;94841.28;5036861;28;20199;-62
2022/12/07 01:38:32;;;;;;;12.15;8.45;;;;;;;21.32;44.40;94836.88;5018223;28;20795;-61
2022/12/07 01:40:57;;;;;;;11.18;7.88;;;;;;;21.42;44.58;94856.34;5018669;28;20052;-62
2022/12/07 01:43:23;;;;;;;10.85;8.32;;;;;;;21.18;44.34;94810.75;5037460;28;20044;-62
2022/12/07 01:45:49;;;;;;;10.82;8.45;;;;;;;21.34;44.53;94837.09;5018689;28;20056;-61
2022/12/07 01:48:16;;;;;;;10.40;8.07;;;;;;;21.44;44.48;94860.03;5036268;28;20691;-63
2022/12/07 01:50:42;;;;;;;11.32;8.18;;;;;;;21.39;44.48;94849.19;5036170;28;20060;-63
2022/12/07 01:53:08;;;;;;;10.43;7.93;;;;;;;20.65;44.38;94736.38;5016399;28;20045;-62
2022/12/07 01:55:34;;;;;;;13.23;8.25;;;;;;;21.41;44.58;94844.72;5016426;28;20043;-61
2022/12/07 01:58:00;;;;;;;12.63;8.40;;;;;;;21.32;44.37;94834.16;5022346;28;20064;-61
2022/12/07 02:00:25;;;;;;;12.15;8.10;;;;;;;20.83;44.47;94746.72;5016270;28;20053;-61
2022/12/07 02:03:04;;;;;;;13.02;8.90;;;;;;;21.39;44.62;94830.94;5014867;28;20078;-61
2022/12/07 02:05:30;;;;;;;11.83;8.40;;;;;;;21.30;44.46;94811.44;5021682;28;20266;-61
2022/12/07 02:07:56;;;;;;;12.00;8.82;;;;;;;21.31;44.52;94848.97;5014424;28;20775;-63
2022/12/07 02:10:26;;;;;;;10.55;8.25;;;;;;;21.38;44.47;94851.16;5016831;28;20036;-61
2022/12/07 02:13:09;;;;;;;12.68;8.73;;;;;;;20.59;44.81;94728.25;5015687;28;20048;-61
2022/12/07 02:15:44;;;;;;;11.70;8.48;;;;;;;21.36;44.64;94848.22;5017736;28;20067;-61
2022/12/07 02:18:13;;;;;;;11.45;8.25;;;;;;;21.36;44.62;94842.78;5017331;28;20056;-62
2022/12/07 02:20:45;;;;;;;10.88;8.20;;;;;;;21.35;44.58;94830.44;5034424;28;20055;-62
2022/12/07 02:23:24;;;;;;;10.93;8.68;;;;;;;21.12;44.28;94801.91;5034809;28;20191;-61
2022/12/07 02:26:14;;;;;;;11.18;7.85;;;;;;;21.32;44.62;94836.88;5023513;28;20167;-61
2022/12/07 02:28:51;;;;;;;12.77;8.98;;;;;;;21.33;44.58;94849.22;5017303;28;20036;-61
2022/12/07 02:31:19;;;;;;;12.55;8.85;;;;;;;21.30;44.54;94817.63;5035561;28;20033;-62
2022/12/07 02:33:50;;;;;;;11.18;8.10;;;;;;;21.30;44.51;94817.63;5017837;28;20065;-61
2022/12/07 02:36:32;;;;;;;10.82;8.10;;;;;;;21.17;44.56;94803.84;5007098;28;20060;-62
2022/12/07 02:39:14;;;;;;;11.65;8.20;;;;;;;21.27;44.55;94815.91;5037902;28;20132;-62
2022/12/07 02:41:46;;;;;;;10.23;8.20;;;;;;;21.33;44.57;94829.44;5006029;28;20099;-61
2022/12/07 02:44:14;;;;;;;10.93;8.25;;;;;;;21.32;44.45;94826.00;5019203;28;21298;-60
2022/12/07 02:46:44;;;;;;;11.50;9.00;;;;;;;21.31;44.38;94835.38;5024580;28;20068;-60
2022/12/07 02:49:10;;;;;;;11.43;8.15;;;;;;;21.28;44.48;94830.94;5020492;28;20039;-61
2022/12/07 02:51:41;;;;;;;11.80;8.77;;;;;;;19.93;44.51;94617.78;4999157;28;20151;-62
2022/12/07 02:54:14;;;;;;;10.38;8.13;;;;;;;21.28;44.44;94820.09;5017357;28;20059;-59
2022/12/07 02:56:49;;;;;;;11.52;8.73;;;;;;;21.14;44.66;94804.84;5034924;28;20835;-60
2022/12/07 02:59:29;;;;;;;11.02;9.32;;;;;;;21.25;44.59;94821.09;4990598;28;20143;-61
2022/12/07 03:01:54;;;;;;;;;;;;;;;21.26;44.63;94811.72;5035738;28;20074;-61
2022/12/07 03:04:25;;;;;;;11.43;8.50;;;;;;;21.26;44.79;94805.56;5034894;28;19981;-62
2022/12/07 03:06:55;;;;;;;12.43;8.60;;;;;;;21.26;44.65;94806.28;5035171;28;20425;-62
2022/12/07 03:09:27;;;;;;;11.55;8.70;;;;;;;20.98;44.43;94775.78;5017507;28;20049;-62
2022/12/07 03:12:05;;;;;;;12.30;9.27;;;;;;;21.23;44.68;94801.84;5014804;28;20048;-61
2022/12/07 03:14:33;;;;;;;12.05;9.00;;;;;;;21.06;44.59;94782.16;5016053;28;20105;-62
2022/12/07 03:17:09;;;;;;;11.50;8.77;;;;;;;21.21;44.68;94796.19;5033672;28;20187;-62
2022/12/07 03:19:35;;;;;;;11.32;8.75;;;;;;;20.58;44.52;94701.63;4997027;28;20043;-61
2022/12/07 03:22:02;;;;;;;10.98;8.45;;;;;;;21.22;44.48;94805.78;4971798;28;20732;-61
2022/12/07 03:24:33;;;;;;;11.02;8.68;;;;;;;21.06;44.50;94776.75;5019532;28;20556;-63
2022/12/07 03:27:08;;;;;;;11.30;8.50;;;;;;;21.07;44.55;94778.19;5013503;28;20052;-62
2022/12/07 03:30:02;;;;;;;13.07;9.02;;;;;;;21.03;44.49;94783.16;5003405;28;20056;-62
2022/12/07 03:32:35;;;;;;;11.25;8.90;;;;;;;21.09;44.60;94794.75;4999200;28;20147;-61
2022/12/07 03:35:06;;;;;;;10.90;8.55;;;;;;;20.40;44.48;94694.03;5031826;28;20049;-61
2022/12/07 03:37:37;;;;;;;11.10;8.43;;;;;;;21.08;44.61;94795.25;5013548;28;20037;-61
2022/12/07 03:40:13;;;;;;;11.73;8.43;;;;;;;21.02;44.48;94792.53;5020101;28;20060;-61
2022/12/07 03:42:38;;;;;;;10.32;8.25;;;;;;;20.99;44.51;94768.38;5014407;28;20106;-61
2022/12/07 03:45:04;;;;;;;11.90;8.70;;;;;;;20.87;44.20;94752.63;5015378;28;20460;-62
2022/12/07 03:47:32;;;;;;;11.13;8.50;;;;;;;21.12;44.64;94806.56;5033467;28;20766;-61
2022/12/07 03:50:11;;;;;;;12.93;9.30;;;;;;;21.06;44.53;94787.59;5004093;28;20051;-61
2022/12/07 03:53:20;;;;;;;12.90;9.20;;;;;;;21.14;44.58;94804.84;5003961;28;20035;-62
2022/12/07 03:55:46;;;;;;;11.15;8.82;;;;;;;20.85;44.49;94760.53;4999805;28;20066;-61
2022/12/07 03:58:13;;;;;;;11.07;8.98;;;;;;;21.05;44.66;94783.41;5014882;28;20111;-62
2022/12/07 04:00:39;;;;;;;11.77;8.55;;;;;;;21.12;44.71;94791.03;5000258;28;21760;-61
2022/12/07 04:03:05;;;;;;;10.65;8.20;;;;;;;21.04;44.53;94781.19;5001436;28;21744;-61
2022/12/07 04:05:31;;;;;;;12.77;8.57;;;;;;;20.99;44.84;94777.25;5032476;28;20063;-62
2022/12/07 04:07:56;;;;;;;12.05;8.75;;;;;;;20.83;44.65;94757.56;5013999;28;20128;-64
2022/12/07 04:10:22;;;;;;;12.13;8.63;;;;;;;21.11;44.40;94810.53;5032719;28;21643;-61
2022/12/07 04:12:47;;;;;;;11.30;8.80;;;;;;;20.32;44.37;94676.81;5032550;28;21564;-61
2022/12/07 04:15:13;;;;;;;11.63;8.80;;;;;;;20.86;44.72;94756.59;5033690;28;21131;-60
2022/12/07 04:17:38;;;;;;;9.93;8.32;;;;;;;20.87;44.71;94753.38;5014413;28;21353;-61
2022/12/07 04:20:04;;;;;;;10.90;8.30;;;;;;;21.03;44.54;94783.16;5020103;28;20594;-61
2022/12/07 04:22:30;;;;;;;10.80;8.50;;;;;;;21.10;44.45;94815.22;5014548;28;20047;-63
2022/12/07 04:24:55;;;;;;;11.02;8.35;;;;;;;20.48;44.18;94700.44;4987996;28;20060;-62
2022/12/07 04:27:21;;;;;;;10.82;8.20;;;;;;;20.84;44.51;94756.34;5032451;28;20044;-61
2022/12/07 04:29:46;;;;;;;11.55;8.70;;;;;;;20.18;44.54;94667.00;5033500;28;20067;-62
2022/12/07 04:32:12;;;;;;;10.50;8.48;;;;;;;21.07;44.51;94799.91;5032897;28;20048;-62
2022/12/07 04:34:37;;;;;;;10.90;8.38;;;;;;;21.09;44.59;94802.91;5033998;28;20036;-61
2022/12/07 04:37:03;;;;;;;11.30;8.68;;;;;;;21.00;44.57;94784.16;5035489;28;22270;-60
2022/12/07 04:39:29;;;;;;;12.23;8.75;;;;;;;21.07;44.76;94799.91;5033469;28;20045;-61
2022/12/07 04:41:55;;;;;;;11.63;8.55;;;;;;;21.06;44.54;94803.88;5033155;28;20048;-62
2022/12/07 04:44:21;;;;;;;11.25;8.90;;;;;;;20.81;44.51;94762.78;5014979;28;20052;-62
2022/12/07 04:46:46;;;;;;;12.30;8.73;;;;;;;21.06;44.49;94803.88;5032748;28;20037;-62
2022/12/07 04:49:12;;;;;;;10.60;8.52;;;;;;;21.01;44.53;94801.91;5033752;28;21185;-62
2022/12/07 04:51:37;;;;;;;10.93;8.93;;;;;;;20.99;44.63;94798.97;5020137;28;20095;-61
2022/12/07 04:54:03;;;;;;;10.88;8.38;;;;;;;21.06;44.71;94806.59;5028411;28;20063;-63
2022/12/07 04:56:28;;;;;;;11.93;9.02;;;;;;;21.04;44.64;94806.34;5049873;28;20040;-61
2022/12/07 04:58:54;;;;;;;10.98;7.97;;;;;;;21.05;44.54;94796.97;5064446;28;20504;-62
2022/12/07 05:01:19;;;;;;;11.35;8.77;;;;;;;21.18;44.26;94818.16;5046540;28;20736;-63
2022/12/07 05:03:45;;;;;;;11.60;8.52;;;;;;;21.13;44.59;94787.06;5062873;28;20045;-62
2022/12/07 05:06:11;;;;;;;10.60;8.25;;;;;;;20.67;44.39;94731.19;5050097;28;20041;-61
2022/12/07 05:08:36;;;;;;;11.40;8.73;;;;;;;20.87;44.05;94733.66;5013066;28;20041;-61
2022/12/07 05:11:02;;;;;;;11.15;9.05;;;;;;;21.04;44.00;94741.19;5055607;28;20044;-61
2022/12/07 05:13:28;;;;;;;11.18;8.40;;;;;;;21.20;43.81;94762.13;5030239;28;20041;-61
2022/12/07 05:15:53;;;;;;;12.23;9.02;;;;;;;21.66;43.67;94811.06;5049525;28;20132;-61
2022/12/07 05:18:18;;;;;;;10.15;8.23;;;;;;;21.71;43.40;94807.56;5037616;28;20037;-61
2022/12/07 05:20:44;;;;;;;12.27;8.75;;;;;;;21.87;43.21;94810.19;5030550;28;20044;-61
2022/12/07 05:23:09;;;;;;;11.27;8.32;;;;;;;21.95;43.11;94811.84;5058299;28;20048;-61
2022/12/07 05:25:35;;;;;;;10.95;8.20;;;;;;;21.16;42.73;94693.75;5032220;28;20029;-62
2022/12/07 05:28:00;;;;;;;10.57;7.95;;;;;;;21.81;43.03;94795.13;5053866;28;20715;-62
2022/12/07 05:30:26;;;;;;;11.10;8.10;;;;;;;22.00;42.61;94813.81;5050776;28;20082;-62
2022/12/07 05:32:51;;;;;;;10.88;8.57;;;;;;;22.04;42.52;94836.00;5050102;28;20037;-62
2022/12/07 05:35:17;;;;;;;11.30;8.07;;;;;;;21.95;43.01;94781.94;5036788;28;20037;-62
2022/12/07 05:37:43;;;;;;;10.82;7.85;;;;;;;22.25;42.37;94801.78;5015517;28;20029;-63
2022/12/07 05:40:09;;;;;;;11.10;8.75;;;;;;;22.28;42.49;94806.19;5049892;28;20497;-62
2022/12/07 05:42:34;;;;;;;11.32;8.48;;;;;;;22.02;42.54;94762.38;5049757;28;20072;-63
2022/12/07 05:45:00;;;;;;;11.02;8.55;;;;;;;22.26;42.15;94776.06;5045940;28;20445;-62
2022/12/07 05:47:25;;;;;;;9.80;7.85;;;;;;;22.35;41.95;94778.47;5048625;28;20771;-64
2022/12/07 05:49:51;;;;;;;11.35;8.80;;;;;;;22.49;41.82;94782.78;5052210;28;20032;-62
2022/12/07 05:52:16;;;;;;;10.75;8.50;;;;;;;22.30;41.69;94768.38;5032398;28;20090;-61
2022/12/07 05:54:42;;;;;;;9.77;7.50;;;;;;;22.54;41.55;94780.00;5034322;28;20570;-62
2022/12/07 05:57:07;;;;;;;10.93;8.43;;;;;;;22.66;41.26;94796.97;5047174;28;20041;-63
2022/12/07 05:59:32;;;;;;;11.25;8.45;;;;;;;22.58;41.69;94790.59;5051217;28;20780;-61
2022/12/07 06:02:06;;;;;;;11.00;8.45;;;;;;;21.72;41.89;94667.72;5060994;28;20594;-59
2022/12/07 06:04:34;;;;;;;9.60;8.20;;;;;;;22.75;41.08;94797.38;5056502;28;20033;-63
2022/12/07 06:06:59;;;;;;;10.73;8.20;;;;;;;22.64;41.50;94791.28;5067330;28;20052;-62
2022/12/07 06:09:26;;;;;;;9.75;7.93;;;;;;;22.78;41.45;94784.72;5048919;28;20055;-61
2022/12/07 06:14:35;;;;;;;12.27;8.77;;;;;;;22.81;40.59;94778.25;5032074;28;20205;-62
2022/12/07 06:17:00;;;;;;;10.73;7.68;;;;;;;22.98;40.84;94796.66;5027779;28;20063;-64
2022/12/07 06:19:26;;;;;;;9.10;7.60;;;;;;;22.99;41.29;94798.13;5047475;28;20489;-64
2022/12/07 06:21:52;;;;;;;8.73;7.45;;;;;;;22.88;40.69;94721.25;5058555;28;20097;-63
2022/12/07 06:24:17;;;;;;;9.00;7.30;;;;;;;23.34;41.44;94805.44;5047325;28;20132;-63
2022/12/07 06:26:43;;;;;;;10.25;7.90;;;;;;;23.17;42.28;94808.34;5065757;28;20119;-62
2022/12/07 06:29:08;;;;;;;9.05;7.20;;;;;;;23.26;44.10;94816.16;5047390;28;20143;-62
2022/12/07 06:31:35;;;;;;;10.13;7.70;;;;;;;22.96;43.46;94763.75;5041758;28;20029;-63
2022/12/07 06:34:01;;;;;;;8.77;7.32;;;;;;;23.24;44.26;94813.19;5049211;28;20520;-63
2022/12/07 06:36:27;;;;;;;9.43;7.43;;;;;;;23.45;43.72;94806.00;5067042;28;20497;-63
2022/12/07 06:38:52;;;;;;;9.75;7.50;;;;;;;23.44;44.37;94805.28;5064791;28;20135;-61
2022/12/07 06:41:18;;;;;;;9.02;7.35;;;;;;;23.35;43.85;94780.38;5048692;28;20099;-62
2022/12/07 06:43:43;;;;;;;8.65;7.13;;;;;;;23.14;43.72;94787.56;5028260;28;20047;-66
2022/12/07 06:46:09;;;;;;;10.07;7.78;;;;;;;23.50;42.88;94813.41;5047266;28;20045;-61
2022/12/07 06:48:34;;;;;;;9.60;7.65;;;;;;;23.53;42.06;94806.91;5062409;28;20056;-63
2022/12/07 06:50:59;;;;;;;9.35;6.85;;;;;;;23.52;41.44;94802.72;5065923;28;20048;-61
2022/12/07 06:53:25;;;;;;;8.88;7.05;;;;;;;23.40;41.56;94795.91;5065907;28;20074;-63
2022/12/07 06:55:50;;;;;;;8.75;7.32;;;;;;;23.76;40.96;94827.22;5061503;28;20204;-63
2022/12/07 06:58:16;;;;;;;9.88;7.65;;;;;;;23.01;41.36;94741.16;5058068;28;20040;-62
2022/12/07 07:00:42;;;;;;;8.77;7.10;;;;;;;23.01;41.60;94752.06;5059405;28;20052;-64
2022/12/07 07:03:07;;;;;;;9.23;7.25;;;;;;;23.04;41.05;94726.53;5048087;28;20049;-63
2022/12/07 07:05:33;;;;;;;8.63;7.18;;;;;;;24.19;40.74;94812.94;5027449;28;20041;-62
2022/12/07 07:07:58;;;;;;;10.00;7.55;;;;;;;24.43;39.75;94821.03;5055722;28;20048;-62
2022/12/07 07:10:24;;;;;;;8.75;6.90;;;;;;;24.41;39.88;94818.09;5039738;28;20033;-62
2022/12/07 07:12:49;;;;;;;9.35;7.32;;;;;;;24.18;39.97;94806.00;5052479;28;20482;-60
2022/12/07 07:15:15;;;;;;;10.20;7.38;;;;;;;24.37;40.11;94821.09;5027001;28;20545;-62
2022/12/07 07:17:40;;;;;;;9.13;7.25;;;;;;;24.49;39.87;94808.03;5045102;28;20148;-63
2022/12/07 07:20:06;;;;;;;9.90;7.20;;;;;;;24.16;40.15;94786.69;5044901;28;20149;-63
2022/12/07 07:22:31;;;;;;;8.65;6.85;;;;;;;24.29;39.93;94805.84;5040672;28;20035;-62
2022/12/07 07:24:57;;;;;;;9.10;7.15;;;;;;;24.49;39.63;94810.75;5036126;28;20056;-65
2022/12/07 07:27:22;;;;;;;9.02;7.32;;;;;;;24.46;39.69;94803.63;5031528;28;20484;-61
2022/12/07 07:29:48;;;;;;;8.55;7.20;;;;;;;24.03;39.96;94794.81;5024765;28;20046;-61
2022/12/07 07:32:13;;;;;;;8.45;6.78;;;;;;;24.32;39.70;94804.81;5037980;28;20045;-62
2022/12/07 07:34:39;;;;;;;9.95;6.95;;;;;;;24.42;39.61;94792.25;5031057;28;20712;-61
2022/12/07 07:37:05;;;;;;;7.85;6.80;;;;;;;24.61;39.70;94842.09;5039857;28;20035;-63
2022/12/07 07:39:30;;;;;;;10.18;7.30;;;;;;;24.55;39.43;94819.59;5030719;28;20053;-63
2022/12/07 07:41:56;;;;;;;9.15;7.13;;;;;;;24.68;39.34;94825.06;5033473;28;20144;-65
2022/12/07 07:44:21;;;;;;;9.30;7.45;;;;;;;24.56;39.71;94826.53;5041048;28;20094;-63
2022/12/07 07:46:47;;;;;;;8.85;6.97;;;;;;;24.69;39.22;94815.63;5037517;28;20468;-62
2022/12/07 07:49:12;;;;;;;10.32;7.68;;;;;;;24.60;39.32;94824.22;5032685;28;20703;-65
2022/12/07 07:51:38;;;;;;;8.55;6.75;;;;;;;24.60;39.27;94816.03;5040040;28;20658;-64
2022/12/07 07:54:03;;;;;;;10.18;7.70;;;;;;;24.63;39.45;94817.72;5042531;28;20040;-63
2022/12/07 07:56:30;;;;;;;9.70;7.30;;;;;;;24.51;39.12;94816.44;5041954;28;20045;-63
2022/12/07 07:58:55;;;;;;;9.23;7.15;;;;;;;24.17;39.37;94776.50;5041932;28;20553;-62
2022/12/07 08:01:21;;;;;;;10.30;7.55;;;;;;;24.04;39.25;94760.84;5030935;28;20107;-60
2022/12/07 08:03:47;;;;;;;8.75;7.10;;;;;;;23.73;39.28;94717.19;5028972;28;20242;-65
2022/12/07 08:06:12;;;;;;;10.35;7.07;;;;;;;23.46;39.12;94687.56;5030423;28;20041;-65
2022/12/07 08:08:38;;;;;;;8.20;6.97;;;;;;;24.23;39.19;94810.66;5029923;28;20476;-68
2022/12/07 08:11:07;;;;;;;9.85;7.32;;;;;;;24.15;39.76;94815.22;5025282;28;20041;-64
2022/12/07 08:13:32;;;;;;;8.57;7.07;;;;;;;24.07;39.43;94811.63;5029018;28;20033;-68
2022/12/07 08:15:58;;;;;;;9.70;7.65;;;;;;;23.98;39.93;94792.19;5005389;28;20131;-66
2022/12/07 08:18:23;;;;;;;10.00;7.55;;;;;;;24.08;39.99;94815.09;4994815;28;20135;-62
2022/12/07 08:20:49;;;;;;;9.93;7.07;;;;;;;24.02;39.56;94809.72;5030987;28;20718;-62
2022/12/07 08:23:14;;;;;;;9.02;7.20;;;;;;;24.02;39.75;94815.19;5013007;28;20143;-62
2022/12/07 08:25:40;;;;;;;10.43;7.90;;;;;;;23.92;39.87;94805.16;5012166;28;21317;-61
2022/12/07 08:28:05;;;;;;;9.23;6.90;;;;;;;23.13;39.68;94706.38;5031614;28;20041;-65
2022/12/07 08:30:31;;;;;;;9.65;7.43;;;;;;;23.78;40.17;94811.06;5031622;28;20040;-62
2022/12/07 08:32:56;;;;;;;10.48;7.45;;;;;;;23.40;40.30;94750.31;5014190;28;20057;-64
2022/12/07 08:35:22;;;;;;;9.38;7.18;;;;;;;23.82;40.18;94819.69;5014052;28;20180;-63
2022/12/07 08:37:48;;;;;;;9.30;7.28;;;;;;;23.75;39.84;94817.53;5031215;28;20041;-63
2022/12/07 08:40:18;;;;;;;9.77;7.13;;;;;;;23.73;40.47;94823.50;5033276;28;20041;-63
2022/12/07 08:42:50;;;;;;;9.30;7.20;;;;;;;23.71;40.51;94817.13;5034709;28;20060;-62
2022/12/07 08:45:16;;;;;;;10.38;7.15;;;;;;;23.53;40.27;94785.13;5035327;28;20048;-65
2022/12/07 08:47:44;;;;;;;10.65;7.85;;;;;;;23.68;40.22;94796.34;5035998;28;20054;-63
2022/12/07 08:50:11;;;;;;;9.48;7.60;;;;;;;23.50;40.34;94775.97;5017660;28;20045;-63
2022/12/07 08:52:36;;;;;;;10.25;7.68;;;;;;;23.61;40.29;94791.44;5025041;28;20068;-65
2022/12/07 08:55:03;;;;;;;8.52;7.18;;;;;;;23.54;40.00;94792.03;5020328;28;20094;-65
2022/12/07 08:57:29;;;;;;;9.43;7.30;;;;;;;23.50;40.35;94807.94;5018903;28;20540;-65
2022/12/07 08:59:54;;;;;;;10.23;7.85;;;;;;;23.56;40.41;94795.00;5010881;28;20044;-62
2022/12/07 09:02:20;;;;;;;9.55;7.70;;;;;;;23.55;40.09;94804.41;5040379;28;20166;-64
2022/12/07 09:04:45;;;;;;;9.18;7.40;;;;;;;23.55;40.35;94793.50;5039721;28;20044;-63
2022/12/07 09:07:11;;;;;;;9.63;7.63;;;;;;;23.50;40.25;94786.88;5007918;28;20761;-64
2022/12/07 09:09:36;;;;;;;10.63;7.70;;;;;;;23.53;40.24;94793.28;5024247;28;20195;-62
2022/12/07 09:12:02;;;;;;;9.90;7.65;;;;;;;23.49;40.31;94776.47;5041202;28;20072;-64
2022/12/07 09:14:28;;;;;;;10.23;7.85;;;;;;;23.27;39.96;94741.34;5038692;28;20147;-63
2022/12/07 09:16:53;;;;;;;10.55;7.43;;;;;;;23.55;40.27;94777.16;5018146;28;20749;-63
2022/12/07 09:19:19;;;;;;;9.95;7.90;;;;;;;23.51;39.89;94771.25;5019204;28;20068;-65
2022/12/07 09:21:44;;;;;;;10.05;7.68;;;;;;;23.34;40.06;94757.09;5037343;28;20059;-64
2022/12/07 09:24:09;;;;;;;9.85;7.13;;;;;;;22.26;40.21;94633.91;5019200;28;20048;-64
2022/12/07 09:26:35;;;;;;;9.30;7.55;;;;;;;23.41;40.13;94783.78;5006740;28;20093;-64
2022/12/07 09:29:02;;;;;;;10.35;7.97;;;;;;;23.29;40.40;94782.44;5023182;28;20048;-68
2022/12/07 09:31:27;;;;;;;8.82;7.15;;;;;;;22.57;40.35;94642.94;5017713;28;20049;-63
2022/12/07 09:33:55;;;;;;;9.80;7.88;;;;;;;23.39;40.29;94772.63;5017601;28;20095;-63
2022/12/07 09:36:20;;;;;;;10.10;7.60;;;;;;;23.14;40.27;94721.47;5035797;28;20064;-61
2022/12/07 09:38:46;;;;;;;9.77;7.57;;;;;;;22.60;40.35;94632.97;5037591;28;20064;-64
2022/12/07 09:41:11;;;;;;;8.77;7.28;;;;;;;23.33;40.12;94752.91;5035089;28;20139;-65
2022/12/07 09:43:38;;;;;;;9.95;7.47;;;;;;;23.35;40.25;94777.66;5037037;28;20792;-66
2022/12/07 09:46:03;;;;;;;9.38;7.70;;;;;;;23.12;40.33;94708.38;5019064;28;20044;-66
2022/12/07 09:48:38;;;;;;;10.23;7.45;;;;;;;23.23;40.32;94719.09;5006068;28;20491;-66
2022/12/07 09:51:16;;;;;;;10.25;7.90;;;;;;;23.26;39.81;94712.63;5016601;28;20242;-64
2022/12/07 09:53:41;;;;;;;10.85;7.35;;;;;;;23.43;40.32;94743.84;4991994;28;20043;-65
2022/12/07 09:56:11;;;;;;;8.75;7.38;;;;;;;23.46;40.07;94750.97;5017126;28;20499;-62
2022/12/07 09:58:37;;;;;;;9.63;7.30;;;;;;;23.49;40.31;94735.59;5034375;28;20782;-65
2022/12/07 10:01:05;;;;;;;9.32;7.65;;;;;;;23.46;39.71;94731.91;5017622;28;20040;-70
2022/12/07 10:03:31;;;;;;;9.82;7.93;;;;;;;22.02;39.73;94544.88;5035542;28;20048;-68
2022/12/07 10:05:57;;;;;;;9.88;7.80;;;;;;;23.38;39.70;94741.22;5018330;28;20157;-66
2022/12/07 10:08:22;;;;;;;8.57;7.25;;;;;;;23.35;39.87;94715.00;5017743;28;20576;-64
2022/12/07 10:10:52;;;;;;;10.25;8.02;;;;;;;23.36;40.15;94721.91;5016161;28;20029;-63
2022/12/07 10:13:21;;;;;;;;;;;;;;;23.45;39.76;94729.69;5024741;28;20051;-63
2022/12/07 10:15:52;;;;;;;10.52;8.13;;;;;;;23.33;39.92;94739.28;5015658;28;19928;-64
2022/12/07 10:18:20;;;;;;;10.70;7.68;;;;;;;23.44;40.06;94714.63;5035046;28;20123;-66
2022/12/07 10:20:47;;;;;;;11.23;8.18;;;;;;;23.45;39.70;94713.34;5034518;28;20047;-62
2022/12/07 10:23:17;;;;;;;10.18;8.00;;;;;;;23.26;39.93;94718.09;5017644;28;20810;-62
2022/12/07 10:25:42;;;;;;;10.25;7.88;;;;;;;23.30;39.94;94691.25;5022449;28;20544;-64
2022/12/07 10:28:08;;;;;;;10.20;7.78;;;;;;;23.40;40.03;94706.00;5005941;28;20037;-63
2022/12/07 10:31:06;;;;;;;10.52;7.75;;;;;;;22.71;39.84;94597.47;5034709;28;20150;-61
2022/12/07 10:33:44;;;;;;;11.30;7.82;;;;;;;23.40;39.66;94684.19;5011696;28;20080;-62
2022/12/07 10:36:18;;;;;;;9.45;7.35;;;;;;;23.49;40.24;94692.00;5016056;28;20048;-62
2022/12/07 10:38:51;;;;;;;9.55;7.43;;;;;;;23.46;40.15;94665.78;5034275;28;20168;-62
2022/12/07 10:41:17;;;;;;;12.07;7.53;;;;;;;23.66;40.75;94662.53;5021845;28;20048;-62
2022/12/07 10:43:53;;;;;;;10.80;7.60;;;;;;;23.70;40.69;94662.97;5033804;28;20029;-63
2022/12/07 10:46:38;;;;;;;11.13;8.18;;;;;;;23.68;40.40;94665.47;5016879;28;20036;-61
2022/12/07 10:49:08;;;;;;;11.98;8.27;;;;;;;23.65;39.81;94685.59;5031968;28;20057;-64
2022/12/07 10:52:03;;;;;;;11.30;7.95;;;;;;;23.02;39.86;94597.59;5005696;28;20044;-61
2022/12/07 10:54:44;;;;;;;10.80;8.02;;;;;;;23.86;40.39;94686.53;5006924;28;20052;-62
2022/12/07 10:57:37;;;;;;;11.00;8.07;;;;;;;23.90;40.57;94661.13;5033866;28;20211;-62
2022/12/07 11:00:09;;;;;;;10.95;7.80;;;;;;;24.13;40.25;94656.78;4970305;28;20125;-62
2022/12/07 11:03:00;;;;;;;11.23;7.95;;;;;;;23.54;39.92;94549.44;5032304;28;20069;-62
2022/12/07 11:05:45;;;;;;;10.98;7.85;;;;;;;23.78;39.75;94584.75;5034024;28;20469;-62
2022/12/07 11:08:52;;;;;;;8.82;7.35;;;;;;;24.26;40.36;94647.84;5013234;28;20072;-63
2022/12/07 11:11:45;;;;;;;10.75;7.68;;;;;;;24.18;40.21;94644.28;5013931;28;20052;-62
2022/12/07 11:14:22;;;;;;;9.57;7.45;;;;;;;23.54;40.28;94538.53;5023096;28;20048;-63
2022/12/07 11:16:57;;;;;;;10.23;7.32;;;;;;;23.68;39.88;94583.69;4997452;28;21415;-62
2022/12/07 11:19:32;;;;;;;10.48;7.75;;;;;;;24.29;39.90;94644.84;5023504;28;20097;-62
2022/12/07 11:21:58;;;;;;;10.60;7.65;;;;;;;24.06;40.48;94624.66;5021840;28;20074;-62
2022/12/07 11:24:34;;;;;;;10.02;7.47;;;;;;;24.23;40.20;94627.81;5015582;28;20056;-62
2022/12/07 11:27:09;;;;;;;10.18;7.97;;;;;;;24.18;39.85;94593.19;5033032;28;20133;-62
2022/12/07 11:29:44;;;;;;;10.27;7.18;;;;;;;24.34;40.21;94627.66;5024287;28;20048;-62
2022/12/07 11:32:19;;;;;;;10.15;8.10;;;;;;;24.56;39.83;94610.84;5018839;28;20048;-62
2022/12/07 11:35:12;;;;;;;11.00;7.82;;;;;;;24.96;38.86;94615.69;5037081;28;20045;-62
2022/12/07 11:37:40;;;;;;;10.02;7.68;;;;;;;25.10;38.83;94603.53;5036216;28;20782;-61